Time;durP1;ratioP1;P1;durP2;ratioP2;P2;SDS_P1;SDS_P2;PMS_P1;PMS_P2;Temp;Humidity;BMP_temperature;BMP_pressure;BME280_temperature;BME280_humidity;BME280_pressure;Samples;Min_cycle;Max_cycle;Signal;HPM_P1;HPM_P2
2022/06/22 00:00:16;;;;;;;13.98;9.00;;;;;;;17.67;74.84;93126.47;5090012;28;20027;-46
2022/06/22 00:02:42;;;;;;;16.30;9.23;;;;;;;17.71;74.20;93115.53;5071966;28;20081;-44
2022/06/22 00:05:16;;;;;;;10.15;8.00;;;;;;;17.75;73.51;93126.97;5071232;28;20024;-44
2022/06/22 00:07:47;;;;;;;8.25;7.30;;;;;;;17.49;74.37;93126.03;5071493;28;20024;-44
2022/06/22 00:10:33;;;;;;;12.30;9.00;;;;;;;17.55;74.60;93126.41;5089532;28;20027;-47
2022/06/22 00:13:00;;;;;;;10.48;8.18;;;;;;;17.68;73.60;93128.66;5071599;28;20032;-45
2022/06/22 00:15:40;;;;;;;13.15;8.75;;;;;;;17.66;73.71;93136.91;5089138;28;20023;-44
2022/06/22 00:18:45;;;;;;;10.35;8.35;;;;;;;17.41;75.03;93134.59;5089528;28;20024;-45
2022/06/22 00:21:14;;;;;;;11.07;8.73;;;;;;;17.49;75.00;93136.44;5013091;28;20514;-45
2022/06/22 00:23:42;;;;;;;10.57;8.82;;;;;;;17.56;74.81;93141.84;5069185;28;20024;-44
2022/06/22 00:26:16;;;;;;;10.35;8.52;;;;;;;17.58;74.47;93139.19;5069182;28;20030;-44
2022/06/22 00:28:51;;;;;;;9.75;7.75;;;;;;;17.54;74.45;93146.56;5068846;28;20036;-45
2022/06/22 00:31:27;;;;;;;13.20;8.27;;;;;;;17.62;74.21;93141.50;5068750;28;20653;-46
2022/06/22 00:34:05;;;;;;;13.45;8.82;;;;;;;17.35;74.30;93144.63;5031111;28;20479;-46
2022/06/22 00:36:48;;;;;;;13.00;8.10;;;;;;;17.35;74.56;93144.63;5049088;28;20037;-45
2022/06/22 00:39:36;;;;;;;10.98;8.45;;;;;;;17.47;74.32;93136.31;5048614;28;20067;-44
2022/06/22 00:42:18;;;;;;;14.73;8.75;;;;;;;17.54;74.33;93133.34;5048898;28;20112;-45
2022/06/22 00:44:50;;;;;;;11.63;8.77;;;;;;;17.48;74.26;93132.91;5049065;28;20067;-46
2022/06/22 00:47:26;;;;;;;10.52;8.07;;;;;;;17.16;74.96;93114.13;5063052;28;20507;-44
2022/06/22 00:49:58;;;;;;;15.68;8.80;;;;;;;17.21;74.96;93118.63;5089060;28;20051;-45
2022/06/22 00:52:38;;;;;;;12.00;7.75;;;;;;;17.28;74.10;93124.00;5088846;28;20423;-45
2022/06/22 00:55:05;;;;;;;8.88;7.97;;;;;;;17.10;74.59;93136.03;5089087;28;20103;-46
2022/06/22 00:57:35;;;;;;;11.90;8.30;;;;;;;17.20;74.53;93134.63;5070741;28;20036;-45
2022/06/22 01:00:13;;;;;;;13.98;8.00;;;;;;;17.04;75.30;93135.66;5071002;28;20032;-45
2022/06/22 01:02:38;;;;;;;10.23;8.77;;;;;;;17.03;75.18;93139.75;5070882;28;20028;-44
2022/06/22 01:05:18;;;;;;;11.95;9.65;;;;;;;17.08;75.09;93142.22;5088767;28;20053;-44
2022/06/22 01:08:06;;;;;;;8.60;7.80;;;;;;;17.05;75.13;93146.22;5088706;28;20024;-45
2022/06/22 01:10:38;;;;;;;9.40;7.93;;;;;;;16.86;75.39;93148.41;5088829;28;20031;-45
2022/06/22 01:13:20;;;;;;;10.43;7.63;;;;;;;16.91;74.50;93162.03;5088840;28;20047;-45
2022/06/22 01:15:53;;;;;;;12.02;9.00;;;;;;;16.78;75.52;93150.66;5070473;28;20023;-45
2022/06/22 01:18:29;;;;;;;9.52;8.13;;;;;;;16.89;75.19;93150.00;5092735;28;20036;-45
2022/06/22 01:20:57;;;;;;;12.40;8.25;;;;;;;16.80;75.43;93151.53;5068249;28;20025;-45
2022/06/22 01:23:23;;;;;;;9.25;8.15;;;;;;;16.74;75.15;93142.03;5072621;28;20029;-46
2022/06/22 01:25:57;;;;;;;11.10;8.27;;;;;;;16.89;74.89;93133.28;5071911;28;20040;-45
2022/06/22 01:28:24;;;;;;;11.55;7.68;;;;;;;16.82;74.55;93146.09;5071908;28;20024;-45
2022/06/22 01:30:55;;;;;;;12.60;8.05;;;;;;;16.86;74.76;93129.63;5054503;28;20036;-45
2022/06/22 01:33:24;;;;;;;8.90;8.10;;;;;;;16.65;75.66;93137.97;5087816;28;20085;-44
2022/06/22 01:35:57;;;;;;;8.57;7.75;;;;;;;16.77;75.06;93144.34;5092479;28;20103;-48
2022/06/22 01:38:26;;;;;;;9.75;7.55;;;;;;;16.61;74.98;93141.22;5074249;28;20504;-47
2022/06/22 01:41:02;;;;;;;9.00;7.68;;;;;;;16.52;75.08;93142.00;5074095;28;20028;-46
2022/06/22 01:43:37;;;;;;;9.07;7.50;;;;;;;16.52;75.43;93142.00;5067105;28;20119;-45
2022/06/22 01:46:41;;;;;;;10.98;7.55;;;;;;;16.55;74.81;93123.34;5071843;28;20063;-45
2022/06/22 01:49:34;;;;;;;14.30;7.82;;;;;;;16.51;74.56;93118.25;5054037;28;20028;-45
2022/06/22 01:52:11;;;;;;;9.88;7.85;;;;;;;16.36;75.39;93131.81;5060830;28;20041;-46
2022/06/22 01:54:43;;;;;;;10.60;7.85;;;;;;;16.22;76.15;93131.56;5053968;28;20047;-44
2022/06/22 01:57:14;;;;;;;10.00;7.68;;;;;;;16.30;76.29;93129.34;5071579;28;20099;-45
2022/06/22 01:59:43;;;;;;;11.38;8.45;;;;;;;16.31;76.04;93125.22;5071866;28;20027;-46
2022/06/22 02:02:14;;;;;;;14.13;7.78;;;;;;;16.41;75.37;93125.19;5071635;28;20527;-47
2022/06/22 02:04:53;;;;;;;11.63;7.82;;;;;;;16.48;75.16;93124.97;5071927;28;20079;-45
2022/06/22 02:07:45;;;;;;;7.70;6.97;;;;;;;16.45;75.63;93128.22;5071973;28;20029;-44
2022/06/22 02:10:35;;;;;;;11.05;8.15;;;;;;;16.32;76.26;93126.69;5055767;28;20027;-45
2022/06/22 02:13:16;;;;;;;11.13;8.93;;;;;;;16.43;75.83;93117.69;5053626;28;20059;-45
2022/06/22 02:16:10;;;;;;;14.13;8.60;;;;;;;16.41;75.64;93125.91;5071684;28;20024;-44
2022/06/22 02:18:44;;;;;;;15.07;9.38;;;;;;;16.39;75.78;93120.22;5053963;28;20032;-43
2022/06/22 02:21:24;;;;;;;10.10;7.78;;;;;;;16.44;75.24;93127.50;5053642;28;20028;-45
2022/06/22 02:24:02;;;;;;;8.98;7.95;;;;;;;16.21;75.66;93126.59;5071681;28;20407;-45
2022/06/22 02:26:33;;;;;;;9.93;8.07;;;;;;;16.20;75.96;93125.16;5048375;28;20412;-44
2022/06/22 02:28:59;;;;;;;10.80;8.00;;;;;;;16.31;75.45;93135.63;5050541;28;20029;-45
2022/06/22 02:31:24;;;;;;;9.98;8.23;;;;;;;16.32;75.31;93126.69;5033426;28;20025;-44
2022/06/22 02:33:53;;;;;;;11.73;8.88;;;;;;;16.27;75.50;93127.00;5091516;28;20059;-44
2022/06/22 02:36:20;;;;;;;10.27;8.45;;;;;;;16.11;75.89;93123.88;5090922;28;20495;-43
2022/06/22 02:38:48;;;;;;;10.82;7.75;;;;;;;16.33;75.61;93116.28;5073059;28;20031;-44
2022/06/22 02:46:45;;;;;;;13.65;8.57;;;;;;;16.11;76.04;93120.34;5055949;28;20093;-44
2022/06/22 02:49:21;;;;;;;12.10;7.80;;;;;;;16.09;74.64;93120.91;5071011;28;20052;-45
2022/06/22 02:51:48;;;;;;;11.10;7.70;;;;;;;15.86;75.29;93123.50;5052873;28;20029;-43
2022/06/22 02:54:47;;;;;;;10.73;8.30;;;;;;;15.92;75.53;93121.88;5070838;28;20012;-43
2022/06/22 02:57:32;;;;;;;12.18;7.93;;;;;;;15.91;75.75;93136.41;5034296;28;20036;-44
2022/06/22 02:59:58;;;;;;;10.30;7.20;;;;;;;15.83;76.19;93130.97;5052953;28;20032;-46
2022/06/22 03:02:25;;;;;;;9.80;7.63;;;;;;;15.88;75.26;93138.31;5052444;28;20082;-45
2022/06/22 03:04:51;;;;;;;8.23;6.85;;;;;;;15.74;75.83;93140.09;5052836;28;20029;-46
2022/06/22 03:07:18;;;;;;;14.40;9.98;;;;;;;15.84;75.99;93126.16;5052721;28;20091;-47
2022/06/22 03:09:45;;;;;;;13.55;9.95;;;;;;;15.83;75.77;93133.78;5070501;28;20022;-45
2022/06/22 03:12:12;;;;;;;14.95;10.45;;;;;;;15.74;76.13;93137.31;5052064;28;20028;-46
2022/06/22 03:14:52;;;;;;;13.00;9.10;;;;;;;15.81;75.36;93113.41;5052649;28;20144;-44
2022/06/22 03:17:22;;;;;;;11.35;9.02;;;;;;;16.06;75.14;93129.75;5069974;28;20495;-43
2022/06/22 03:19:50;;;;;;;14.13;9.50;;;;;;;16.07;75.90;93131.94;5052280;28;20020;-43
2022/06/22 03:22:24;;;;;;;23.08;10.18;;;;;;;16.05;76.13;93129.00;5052286;28;20415;-43
2022/06/22 03:24:55;;;;;;;10.82;9.35;;;;;;;16.00;76.48;93120.97;5050063;28;20032;-46
2022/06/22 03:27:25;;;;;;;10.18;9.13;;;;;;;15.91;76.92;93103.72;5032690;28;20032;-45
2022/06/22 03:30:00;;;;;;;11.95;9.50;;;;;;;15.77;77.43;93104.78;5050011;28;20037;-46
2022/06/22 03:32:32;;;;;;;10.48;8.48;;;;;;;15.88;77.13;93110.47;5066696;28;20031;-44
2022/06/22 03:35:02;;;;;;;13.35;8.52;;;;;;;15.92;76.55;93118.34;5071842;28;20040;-45
2022/06/22 03:37:34;;;;;;;9.68;8.73;;;;;;;15.86;76.81;93117.94;5070431;28;20028;-43
2022/06/22 03:40:24;;;;;;;16.10;8.60;;;;;;;15.88;77.01;93112.50;5051196;28;20055;-43
2022/06/22 03:42:56;;;;;;;10.75;9.05;;;;;;;15.91;77.81;93094.63;5037573;28;20070;-43
2022/06/22 03:45:27;;;;;;;10.60;8.13;;;;;;;16.04;77.32;93099.72;5051879;28;20471;-43
2022/06/22 03:47:58;;;;;;;9.60;7.78;;;;;;;16.11;77.20;93104.38;5051603;28;20773;-44
2022/06/22 03:50:34;;;;;;;12.88;8.07;;;;;;;16.09;76.16;93095.16;5069249;28;20146;-43
2022/06/22 03:53:17;;;;;;;9.98;7.93;;;;;;;16.16;75.95;93119.28;5069721;28;20032;-44
2022/06/22 03:55:47;;;;;;;15.77;8.15;;;;;;;16.21;76.42;93130.13;5069568;28;20051;-44
2022/06/22 03:58:13;;;;;;;10.98;8.73;;;;;;;16.30;76.37;93131.41;5051362;28;20504;-44
2022/06/22 04:00:40;;;;;;;12.80;8.93;;;;;;;16.31;76.89;93130.06;5069363;28;20029;-43
2022/06/22 04:03:05;;;;;;;11.57;9.38;;;;;;;16.43;77.00;93144.81;5051385;28;20523;-44
2022/06/22 04:05:38;;;;;;;10.00;7.95;;;;;;;16.52;77.57;93130.13;5051527;28;20078;-42
2022/06/22 04:08:03;;;;;;;11.02;9.00;;;;;;;16.70;77.08;93127.84;5051765;28;20024;-43
2022/06/22 04:10:52;;;;;;;13.60;9.57;;;;;;;16.78;77.46;93114.41;5051554;28;20051;-42
2022/06/22 04:13:28;;;;;;;14.27;8.95;;;;;;;16.83;77.41;93116.16;5069565;28;20028;-44
2022/06/22 04:16:01;;;;;;;11.07;8.85;;;;;;;17.02;77.61;93136.25;5069580;28;20122;-44
2022/06/22 04:18:31;;;;;;;14.93;9.75;;;;;;;17.21;77.41;93132.59;5051529;28;20039;-43
2022/06/22 04:21:07;;;;;;;12.80;8.80;;;;;;;17.31;76.92;93133.22;5044640;28;20017;-46
2022/06/22 04:23:47;;;;;;;11.57;8.43;;;;;;;17.35;76.43;93133.47;5031109;28;20025;-44
2022/06/22 04:26:26;;;;;;;11.65;9.32;;;;;;;17.44;75.93;93118.72;5048710;28;20081;-46
2022/06/22 04:28:59;;;;;;;13.70;9.50;;;;;;;17.43;75.84;93136.81;5031150;28;20580;-45
2022/06/22 04:31:29;;;;;;;12.82;9.65;;;;;;;17.46;76.37;93135.59;5030905;28;20078;-50
2022/06/22 04:34:00;;;;;;;14.23;9.02;;;;;;;17.59;76.34;93123.88;5050943;28;20047;-47
2022/06/22 04:36:31;;;;;;;15.88;12.20;;;;;;;17.54;76.88;93121.44;5068962;28;20028;-48
2022/06/22 04:39:00;;;;;;;17.95;13.07;;;;;;;17.62;77.08;93122.69;5068864;28;20116;-50
2022/06/22 04:41:35;;;;;;;14.30;12.88;;;;;;;17.66;77.73;93133.38;5068799;28;20491;-49
2022/06/22 04:44:08;;;;;;;14.02;11.07;;;;;;;17.72;77.65;93120.50;5051068;28;20028;-48
2022/06/22 04:46:41;;;;;;;14.95;11.38;;;;;;;17.75;77.71;93132.53;5051008;28;20033;-49
2022/06/22 04:49:35;;;;;;;14.65;10.30;;;;;;;17.88;77.96;93134.75;5051051;28;20496;-49
2022/06/22 04:52:17;;;;;;;15.95;10.23;;;;;;;17.89;77.91;93131.34;5077914;28;20037;-48
2022/06/22 04:54:45;;;;;;;12.48;10.00;;;;;;;17.97;77.95;93145.84;5075417;28;20063;-50
2022/06/22 04:57:25;;;;;;;16.23;9.73;;;;;;;18.05;78.31;93134.41;5075040;28;20027;-52
2022/06/22 04:59:51;;;;;;;11.18;9.48;;;;;;;18.00;77.71;93116.69;5092912;28;20031;-49
2022/06/22 05:02:20;;;;;;;14.32;10.77;;;;;;;18.16;77.25;93142.81;5074971;28;20036;-53
2022/06/22 05:04:49;;;;;;;17.13;11.02;;;;;;;18.26;77.58;93142.69;5092949;28;20037;-51
2022/06/22 05:07:45;;;;;;;13.75;10.50;;;;;;;18.27;77.40;93138.56;5074590;28;20032;-47
2022/06/22 05:10:33;;;;;;;37.20;14.13;;;;;;;18.39;78.37;93144.16;5092857;28;20562;-50
2022/06/22 05:13:01;;;;;;;15.35;10.35;;;;;;;18.43;77.91;93142.31;5092667;28;20028;-47
2022/06/22 05:15:31;;;;;;;11.07;9.98;;;;;;;18.56;77.13;93143.84;5074436;28;20035;-49
2022/06/22 05:17:58;;;;;;;12.80;9.98;;;;;;;18.61;77.49;93149.03;5074302;28;20028;-49
2022/06/22 05:20:45;;;;;;;13.10;10.38;;;;;;;18.77;77.74;93150.00;5072415;28;20110;-49
2022/06/22 05:23:11;;;;;;;11.98;9.82;;;;;;;18.92;77.27;93157.16;5054531;28;20024;-45
2022/06/22 05:25:37;;;;;;;12.07;10.70;;;;;;;19.05;76.13;93156.53;5072200;28;20502;-47
2022/06/22 05:28:13;;;;;;;15.13;10.27;;;;;;;19.15;76.62;93157.09;5075442;28;20034;-45
2022/06/22 05:31:05;;;;;;;13.68;10.85;;;;;;;19.21;76.13;93168.63;5074314;28;20031;-48
2022/06/22 05:33:33;;;;;;;27.70;11.13;;;;;;;19.37;76.32;93163.28;5087347;28;20048;-46
2022/06/22 05:36:03;;;;;;;13.93;11.02;;;;;;;19.49;75.74;93158.38;5092232;28;20055;-46
2022/06/22 05:38:30;;;;;;;12.35;10.20;;;;;;;19.50;74.70;93159.81;5073903;28;20024;-47
2022/06/22 05:40:56;;;;;;;14.48;10.52;;;;;;;19.35;76.81;93158.28;5071065;28;20063;-45
2022/06/22 05:43:22;;;;;;;17.88;11.80;;;;;;;19.40;77.36;93156.47;5069871;28;20107;-46
2022/06/22 05:45:56;;;;;;;11.60;9.98;;;;;;;19.49;77.09;93164.69;5052091;28;20137;-46
2022/06/22 05:48:24;;;;;;;12.65;11.10;;;;;;;19.51;78.23;93166.88;5069502;28;20024;-46
2022/06/22 05:50:56;;;;;;;13.30;10.77;;;;;;;19.63;77.18;93173.16;5051507;28;20037;-47
2022/06/22 05:53:38;;;;;;;16.33;11.88;;;;;;;19.59;77.63;93145.66;5068665;28;20028;-46
2022/06/22 05:56:12;;;;;;;13.23;11.50;;;;;;;19.77;77.32;93159.22;5042922;28;20396;-47
2022/06/22 05:59:00;;;;;;;15.80;11.35;;;;;;;19.78;77.53;93155.81;5059962;28;20512;-50
2022/06/22 06:01:53;;;;;;;16.42;11.77;;;;;;;19.97;77.51;93161.06;5046942;28;20041;-47
2022/06/22 06:04:42;;;;;;;21.92;11.68;;;;;;;20.14;76.04;93168.28;5033100;28;20059;-46
2022/06/22 06:07:26;;;;;;;11.65;9.88;;;;;;;20.30;72.99;93166.38;5038847;28;20039;-46
2022/06/22 06:09:52;;;;;;;11.68;10.50;;;;;;;20.39;73.62;93171.06;5040488;28;20029;-47
2022/06/22 06:12:22;;;;;;;13.10;10.45;;;;;;;20.44;74.64;93172.75;5057370;28;20678;-46
2022/06/22 06:14:52;;;;;;;12.93;10.15;;;;;;;20.57;74.48;93168.50;5040198;28;20484;-46
2022/06/22 06:17:35;;;;;;;13.98;10.80;;;;;;;20.64;74.17;93173.09;5056808;28;20029;-47
2022/06/22 06:20:03;;;;;;;17.90;12.10;;;;;;;20.80;74.45;93171.09;5040536;28;20029;-47
2022/06/22 06:22:30;;;;;;;17.10;11.25;;;;;;;20.91;73.00;93159.06;5041354;28;20606;-46
2022/06/22 06:27:56;;;;;;;12.43;11.23;;;;;;;21.24;73.06;93159.38;5041400;28;20040;-50
2022/06/22 06:30:28;;;;;;;20.13;12.07;;;;;;;21.33;72.79;93161.19;5046302;28;20467;-49
2022/06/22 06:33:04;;;;;;;14.27;11.55;;;;;;;21.38;72.54;93136.84;5040821;28;20028;-49
2022/06/22 06:35:46;;;;;;;16.50;11.15;;;;;;;21.73;72.33;93148.41;5057083;28;20044;-48
2022/06/22 06:38:27;;;;;;;15.00;11.90;;;;;;;21.91;71.73;93154.94;5041628;28;20035;-47
2022/06/22 06:41:05;;;;;;;17.33;11.52;;;;;;;22.17;70.89;93147.75;5059211;28;20048;-48
2022/06/22 06:43:47;;;;;;;13.18;11.88;;;;;;;22.46;69.25;93147.66;5056620;28;20033;-49
2022/06/22 06:46:57;;;;;;;14.98;12.07;;;;;;;22.67;69.71;93149.34;5038633;28;20039;-49
2022/06/22 06:49:25;;;;;;;15.32;12.43;;;;;;;22.79;68.33;93155.50;5052609;28;20515;-48
2022/06/22 06:52:13;;;;;;;16.00;12.63;;;;;;;23.00;67.60;93152.19;5038564;28;20033;-47
2022/06/22 06:54:45;;;;;;;15.95;11.40;;;;;;;23.13;67.21;93159.09;5056813;28;20110;-47
2022/06/22 06:57:18;;;;;;;15.25;12.30;;;;;;;23.10;66.51;93152.66;5041474;28;20069;-47
2022/06/22 06:59:47;;;;;;;16.10;13.52;;;;;;;23.23;67.87;93153.88;5055915;28;20519;-48
2022/06/22 07:02:18;;;;;;;15.77;12.82;;;;;;;23.33;66.16;93146.59;5043102;28;20561;-48
2022/06/22 07:04:44;;;;;;;15.27;11.55;;;;;;;23.38;66.43;93147.50;5038935;28;20033;-47
2022/06/22 07:07:39;;;;;;;17.70;12.60;;;;;;;23.47;66.44;93149.28;5036488;28;20534;-47
2022/06/22 07:10:18;;;;;;;15.05;12.30;;;;;;;23.51;65.20;93138.19;5037296;28;20064;-50
2022/06/22 07:13:01;;;;;;;22.02;13.30;;;;;;;23.56;66.45;93141.91;5034731;28;20024;-50
2022/06/22 07:15:33;;;;;;;15.57;12.20;;;;;;;23.71;65.98;93144.66;5039762;28;20528;-48
2022/06/22 07:18:02;;;;;;;15.82;12.40;;;;;;;24.02;65.31;93138.84;5058514;28;20179;-51
2022/06/22 07:20:31;;;;;;;13.57;12.25;;;;;;;24.29;63.25;93137.81;5040182;28;20068;-47
2022/06/22 07:23:02;;;;;;;12.95;11.68;;;;;;;24.51;63.18;93141.47;5044076;28;20033;-47
2022/06/22 07:25:42;;;;;;;14.10;12.05;;;;;;;25.06;61.70;93147.03;5042833;28;20047;-47
2022/06/22 07:28:39;;;;;;;13.55;11.00;;;;;;;25.60;59.50;93139.72;5038279;28;20242;-48
2022/06/22 07:31:10;;;;;;;14.52;9.77;;;;;;;26.15;55.54;93142.25;5014318;28;20075;-46
2022/06/22 07:33:41;;;;;;;13.50;10.68;;;;;;;26.53;56.14;93137.06;5041891;28;20049;-47
2022/06/22 07:36:10;;;;;;;14.95;10.55;;;;;;;27.03;54.28;93127.94;5057213;28;20099;-49
2022/06/22 07:38:49;;;;;;;12.85;10.52;;;;;;;27.72;52.46;93132.63;5039714;28;20551;-47
2022/06/22 07:41:19;;;;;;;11.85;10.38;;;;;;;28.50;50.53;93133.81;5050794;28;20033;-49
2022/06/22 07:44:00;;;;;;;10.50;9.45;;;;;;;29.04;48.29;93145.66;5056265;28;20026;-47
2022/06/22 07:46:34;;;;;;;15.35;10.13;;;;;;;28.47;49.27;93095.41;5039726;28;20032;-47
2022/06/22 07:49:08;;;;;;;26.98;11.70;;;;;;;28.84;49.45;93131.00;5058002;28;20017;-50
2022/06/22 07:51:35;;;;;;;10.77;9.30;;;;;;;29.54;46.35;93123.19;5042794;28;20031;-50
2022/06/22 07:54:10;;;;;;;15.02;10.60;;;;;;;29.79;47.37;93120.13;5045149;28;20091;-47
2022/06/22 07:56:40;;;;;;;11.85;9.40;;;;;;;30.23;44.68;93130.78;5038541;28;20050;-47
2022/06/22 07:59:16;;;;;;;11.98;9.88;;;;;;;30.20;44.28;93140.72;5059247;28;20044;-51
2022/06/22 08:01:43;;;;;;;11.00;9.90;;;;;;;29.74;45.61;93135.66;5058412;28;20027;-48
2022/06/22 08:04:17;;;;;;;12.55;10.45;;;;;;;29.20;47.37;93140.31;5056565;28;20416;-52
2022/06/22 08:06:55;;;;;;;13.50;9.93;;;;;;;28.61;49.10;93143.31;5057596;28;20051;-47
2022/06/22 08:09:25;;;;;;;11.85;10.57;;;;;;;28.15;50.32;93140.81;5058482;28;20032;-48
2022/06/22 08:12:04;;;;;;;14.13;11.77;;;;;;;27.86;52.20;93141.47;5056935;28;20028;-46
2022/06/22 08:14:41;;;;;;;14.95;10.80;;;;;;;27.55;52.92;93156.28;5039347;28;20017;-48
2022/06/22 08:17:13;;;;;;;13.93;11.57;;;;;;;27.37;53.00;93128.19;5056853;28;20036;-51
2022/06/22 08:19:38;;;;;;;15.95;11.95;;;;;;;27.91;51.24;93130.97;5038966;28;20025;-46
2022/06/22 08:22:06;;;;;;;15.02;10.35;;;;;;;28.46;49.81;93123.06;5059894;28;20086;-48
2022/06/22 08:24:34;;;;;;;12.98;10.75;;;;;;;28.55;50.39;93126.81;5057703;28;20028;-49
2022/06/22 08:27:00;;;;;;;14.33;11.37;;;;;;;28.19;49.39;93120.31;5040030;28;20090;-48
2022/06/22 08:29:27;;;;;;;13.05;10.93;;;;;;;27.72;49.15;93136.16;5055402;28;20036;-44
2022/06/22 08:32:21;;;;;;;18.05;12.05;;;;;;;27.02;49.90;93134.25;5035773;28;20028;-47
2022/06/22 08:35:00;;;;;;;14.77;11.52;;;;;;;26.38;50.66;93132.34;5056316;28;20095;-46
2022/06/22 08:37:33;;;;;;;17.60;12.40;;;;;;;26.12;52.45;93115.28;5040943;28;20049;-46
2022/06/22 08:40:06;;;;;;;16.05;11.63;;;;;;;26.08;54.21;93126.44;5039281;28;20060;-49
2022/06/22 08:42:58;;;;;;;14.88;11.60;;;;;;;25.99;53.55;93125.47;5037704;28;20519;-48
2022/06/22 08:45:33;;;;;;;24.23;12.30;;;;;;;25.88;54.52;93118.03;5055885;28;20044;-50
2022/06/22 08:48:11;;;;;;;18.25;14.52;;;;;;;25.71;54.33;93118.19;5045026;28;20033;-47
2022/06/22 08:51:13;;;;;;;14.02;12.13;;;;;;;25.59;54.66;93127.00;5058405;28;20063;-46
2022/06/22 08:54:02;;;;;;;22.92;12.63;;;;;;;25.48;56.20;93145.72;5056980;28;20025;-49
2022/06/22 08:56:41;;;;;;;34.00;12.68;;;;;;;25.42;57.73;93137.03;5039799;28;20021;-47
2022/06/22 08:59:29;;;;;;;19.80;12.20;;;;;;;25.39;57.64;93118.53;5040071;28;20511;-47
2022/06/22 09:02:04;;;;;;;;;;;;;;;25.59;57.72;93127.00;5041762;28;20471;-45
2022/06/22 09:04:51;;;;;;;18.02;11.63;;;;;;;26.89;55.58;93118.31;5055682;28;19917;-48
2022/06/22 09:07:41;;;;;;;14.13;10.18;;;;;;;28.65;48.95;93112.16;5058801;28;20090;-46
2022/06/22 09:10:25;;;;;;;13.48;9.55;;;;;;;30.14;43.17;93107.16;5057683;28;20029;-47
2022/06/22 09:13:15;;;;;;;17.27;10.25;;;;;;;31.91;41.17;93109.44;5037911;28;20035;-48
2022/06/22 09:16:14;;;;;;;12.43;9.18;;;;;;;33.41;37.71;93114.03;5061151;28;20128;-48
2022/06/22 09:18:55;;;;;;;9.45;8.45;;;;;;;34.56;33.99;93108.50;5063345;28;20024;-50
2022/06/22 09:21:36;;;;;;;12.20;8.07;;;;;;;34.53;32.78;93102.06;5053344;28;20769;-46
2022/06/22 09:24:22;;;;;;;9.10;8.27;;;;;;;34.26;33.33;93112.09;5054137;28;20071;-47
2022/06/22 09:26:59;;;;;;;19.55;9.52;;;;;;;33.23;37.04;93116.81;5059208;28;20079;-48
2022/06/22 09:29:30;;;;;;;12.17;8.70;;;;;;;32.41;37.92;93105.59;5057459;28;20453;-47
2022/06/22 09:32:10;;;;;;;12.35;10.55;;;;;;;31.44;40.12;93113.25;5055849;28;20016;-47
2022/06/22 09:34:44;;;;;;;13.80;10.55;;;;;;;30.67;41.33;93105.81;5066786;28;20045;-47
2022/06/22 09:37:21;;;;;;;12.38;10.43;;;;;;;29.77;44.69;93108.69;5060957;28;20039;-46
2022/06/22 09:40:05;;;;;;;13.35;10.32;;;;;;;29.03;45.89;93105.13;5059690;28;20792;-48
2022/06/22 09:43:12;;;;;;;16.85;12.25;;;;;;;27.90;50.53;93110.38;5061870;28;20021;-45
2022/06/22 09:45:44;;;;;;;20.27;11.82;;;;;;;26.93;54.70;93110.66;5059374;28;20067;-45
2022/06/22 09:48:40;;;;;;;17.63;12.20;;;;;;;26.54;57.33;93127.16;5044828;28;20516;-45
2022/06/22 09:51:19;;;;;;;17.30;12.43;;;;;;;26.05;58.68;93128.47;5062025;28;20044;-45
2022/06/22 09:53:57;;;;;;;21.83;13.15;;;;;;;25.56;60.88;93136.78;5044469;28;20016;-47
2022/06/22 09:56:44;;;;;;;19.50;13.27;;;;;;;25.05;63.58;93147.69;5058402;28;20058;-46
2022/06/22 09:59:47;;;;;;;23.50;15.10;;;;;;;24.96;65.13;93157.97;5059488;28;20031;-45
2022/06/22 10:02:35;;;;;;;29.23;15.90;;;;;;;24.70;67.30;93202.16;5056767;28;20021;-44
2022/06/22 10:05:20;;;;;;;;;;;;;;;24.41;68.83;93189.06;5058832;28;20458;-43
2022/06/22 10:08:18;;;;;;;22.33;14.90;;;;;;;24.09;68.62;93154.66;5049379;28;19917;-44
2022/06/22 10:10:49;;;;;;;24.48;15.32;;;;;;;23.91;70.15;93156.72;5031851;28;20416;-43
2022/06/22 10:14:00;;;;;;;18.27;13.90;;;;;;;23.79;70.42;93173.19;5046747;28;20037;-44
2022/06/22 10:16:40;;;;;;;19.08;14.90;;;;;;;23.40;72.83;93172.22;5025073;28;20036;-43
2022/06/22 10:19:24;;;;;;;15.57;10.30;;;;;;;22.95;68.18;93172.38;5057502;28;20555;-43
2022/06/22 10:22:15;;;;;;;14.90;10.05;;;;;;;22.95;67.86;93192.81;5059941;28;20111;-46
2022/06/22 10:24:59;;;;;;;14.23;9.50;;;;;;;23.08;68.14;93199.69;5040871;28;20246;-45
2022/06/22 10:27:51;;;;;;;18.13;9.38;;;;;;;23.18;68.79;93188.88;5056666;28;20028;-45
2022/06/22 10:30:44;;;;;;;12.90;9.50;;;;;;;23.63;66.74;93194.34;5019676;28;20530;-47
2022/06/22 10:33:27;;;;;;;15.45;10.68;;;;;;;24.00;64.61;93189.53;5041060;28;20053;-44
2022/06/22 10:36:17;;;;;;;12.68;10.20;;;;;;;24.26;65.70;93180.69;5057058;28;20047;-44
2022/06/22 10:38:49;;;;;;;16.98;11.38;;;;;;;24.22;66.79;93183.34;5058434;28;20035;-46
2022/06/22 10:47:17;;;;;;;16.40;11.43;;;;;;;24.22;69.27;93167.16;5037809;28;20032;-45
2022/06/22 10:49:51;;;;;;;17.88;10.38;;;;;;;24.78;67.85;93169.31;5058656;28;20025;-48
2022/06/22 10:52:29;;;;;;;13.73;10.25;;;;;;;25.30;65.37;93166.94;5056609;28;20074;-44
2022/06/22 10:55:10;;;;;;;12.68;9.30;;;;;;;26.19;64.37;93159.34;5055984;28;20115;-46
2022/06/22 10:58:13;;;;;;;15.82;9.10;;;;;;;27.36;61.75;93157.19;5057210;28;20024;-47
2022/06/22 11:00:59;;;;;;;13.93;9.93;;;;;;;27.32;59.10;93159.88;5057394;28;20055;-46
2022/06/22 11:03:40;;;;;;;16.33;10.43;;;;;;;27.30;59.24;93154.16;5037596;28;20035;-45
2022/06/22 11:06:34;;;;;;;10.60;9.50;;;;;;;27.16;59.78;93145.97;5041631;28;20032;-47
2022/06/22 11:09:18;;;;;;;15.48;10.88;;;;;;;26.82;61.69;93148.56;5055133;28;20032;-48
2022/06/22 11:11:46;;;;;;;12.25;10.95;;;;;;;26.70;61.25;93147.47;5059631;28;20082;-45
2022/06/22 11:14:30;;;;;;;13.45;11.50;;;;;;;26.67;63.22;93151.63;5057125;28;20122;-48
2022/06/22 11:17:14;;;;;;;16.02;11.60;;;;;;;26.32;62.73;93161.19;5057466;28;20041;-45
2022/06/22 11:20:19;;;;;;;13.05;11.05;;;;;;;25.96;64.34;93143.03;5052760;28;20116;-46
2022/06/22 11:22:54;;;;;;;18.13;13.73;;;;;;;25.45;66.23;93138.53;5043898;28;20041;-46
2022/06/22 11:31:55;;;;;;;14.73;13.20;;;;;;;24.59;70.17;93143.88;5057546;28;20040;-46
2022/06/22 11:34:48;;;;;;;15.52;13.38;;;;;;;24.34;71.76;93142.25;5038461;28;20115;-47
2022/06/22 11:37:42;;;;;;;17.67;14.20;;;;;;;24.06;73.13;93155.25;5037918;28;20423;-45
2022/06/22 11:40:40;;;;;;;17.58;14.40;;;;;;;23.89;74.28;93136.91;5008631;28;20479;-44
2022/06/22 11:43:26;;;;;;;16.33;13.73;;;;;;;23.93;74.85;93108.88;5039638;28;20071;-46
2022/06/22 11:46:24;;;;;;;16.48;12.95;;;;;;;24.21;73.44;93088.81;5037027;28;20037;-44
2022/06/22 11:49:11;;;;;;;15.15;12.18;;;;;;;24.96;74.83;93103.56;5026092;28;20485;-45
2022/06/22 11:51:47;;;;;;;16.65;13.23;;;;;;;25.55;74.44;93126.84;5032248;28;20067;-45
2022/06/22 11:54:31;;;;;;;13.93;12.45;;;;;;;25.98;71.59;93124.03;5028222;28;20026;-47
2022/06/22 11:56:56;;;;;;;12.35;10.23;;;;;;;26.18;66.49;93121.13;5039609;28;20094;-45
2022/06/22 11:59:31;;;;;;;13.40;10.95;;;;;;;26.05;69.10;93130.59;5033226;28;20033;-45
2022/06/22 12:02:11;;;;;;;12.95;10.73;;;;;;;26.17;69.36;93136.66;5037410;28;20027;-45
2022/06/22 12:04:58;;;;;;;9.90;8.90;;;;;;;26.16;66.68;93138.06;5034722;28;20030;-48
2022/06/22 12:07:47;;;;;;;14.43;8.85;;;;;;;26.34;67.06;93135.78;5033872;28;20068;-46
2022/06/22 12:10:31;;;;;;;10.23;8.45;;;;;;;26.69;65.88;93129.03;5033761;28;20441;-48
2022/06/22 12:13:06;;;;;;;12.38;7.82;;;;;;;26.90;65.00;93123.31;5040077;28;20027;-46
2022/06/22 12:15:53;;;;;;;10.23;6.97;;;;;;;26.99;60.87;93119.31;5027752;28;20098;-45
2022/06/22 12:18:46;;;;;;;12.52;7.95;;;;;;;27.05;62.81;93115.91;5033445;28;20029;-46
2022/06/22 12:21:34;;;;;;;9.85;7.60;;;;;;;27.08;63.69;93122.38;5037067;28;20045;-47
2022/06/22 12:24:31;;;;;;;15.88;7.95;;;;;;;27.02;61.99;93118.00;5042049;28;20063;-47
2022/06/22 12:27:06;;;;;;;14.43;9.73;;;;;;;27.12;65.04;93119.63;5039199;28;20128;-47
2022/06/22 12:29:35;;;;;;;8.63;7.78;;;;;;;27.15;61.63;93112.66;5032807;28;20033;-46